Time;durP1;ratioP1;P1;durP2;ratioP2;P2;SDS_P1;SDS_P2;PMS_P1;PMS_P2;Temp;Humidity;BMP_temperature;BMP_pressure;BME280_temperature;BME280_humidity;BME280_pressure;Samples;Min_cycle;Max_cycle;Signal;HPM_P1;HPM_P2
2021/08/03 00:03:01;;;;;;;;;;;;;;;;;;;;;
2021/08/03 00:13:29;;;;;;;;;;;;;;;;;;;;;
2021/08/03 00:50:50;;;;;;;;;9.00;8.25;;;;;19.37;65.95;100989.91;5027948;28;45571;-83
2021/08/03 00:59:59;;;;;;;;;8.33;6.67;;;;;19.41;66.00;101004.91;5039057;28;45365;-86
2021/08/03 01:03:18;;;;;;;;;;;;;;;;;;;;;
2021/08/03 01:09:33;;;;;;;;;7.33;7.33;;;;;19.36;65.82;100996.19;5012838;28;45642;-84
2021/08/03 01:12:51;;;;;;;;;;;;;;;;;;;;;
2021/08/03 01:21:34;;;;;;;;;14.50;11.25;;;;;19.37;66.38;101000.59;5021824;28;46481;-84
2021/08/03 01:24:27;;;;;;;;;8.75;8.75;;;;;19.38;66.80;100992.53;5022478;28;45450;-84
2021/08/03 01:34:21;;;;;;;;;9.00;7.25;;;;;19.36;66.84;100994.38;4931866;28;45591;-84
2021/08/03 01:37:12;;;;;;;;;;;;;;;;;;;;;
2021/08/03 01:40:26;;;;;;;;;;;;;;;;;;;;;
2021/08/03 05:00:41;;;;;;;;;;;;;;;;;;;;;
2021/08/03 05:04:03;;;;;;;;;;;;;;;;;;;;;
2021/08/03 05:06:49;;;;;;;;;;;;;;;;;;;;;
2021/08/03 05:13:18;;;;;;;;;;;;;;;;;;;;;
2021/08/03 05:16:43;;;;;;;;;;;;;;;;;;;;;
2021/08/03 05:29:47;;;;;;;;;3.00;1.67;;;;;18.44;65.13;100946.84;4827814;29;45416;-87
2021/08/03 05:54:29;;;;;;;;;1.00;1.00;;;;;18.50;65.36;100967.09;5140144;22;45312;-89
2021/08/03 05:57:34;;;;;;;;;;;;;;;;;;;;;
2021/08/03 06:06:35;;;;;;;;;2.00;2.00;;;;;18.58;65.26;100993.50;5042285;28;45296;-88
2021/08/03 06:12:35;;;;;;;;;;;;;;;;;;;;;
2021/08/03 06:15:02;;;;;;;;;3.67;2.67;;;;;18.47;66.36;100975.19;5029779;28;67522;-85
2021/08/03 06:17:42;;;;;;;;;5.33;4.33;;;;;18.50;66.22;100978.63;5022901;28;45516;-83
2021/08/03 06:20:08;;;;;;;;;8.00;7.00;;;;;18.51;66.93;100985.69;5021546;28;47358;-83
2021/08/03 06:22:36;;;;;;;;;7.75;6.50;;;;;18.60;66.68;100984.50;5040540;28;45743;-82
2021/08/03 06:25:02;;;;;;;;;7.25;5.75;;;;;18.63;66.76;100984.44;5041095;28;45450;-85
2021/08/03 06:27:30;;;;;;;;;5.25;5.00;;;;;18.71;66.90;100985.06;5040604;28;45459;-86
2021/08/03 06:29:56;;;;;;;;;5.50;4.50;;;;;18.71;66.78;100982.38;5040645;28;46374;-86
2021/08/03 06:32:22;;;;;;;;;4.25;4.25;;;;;18.83;66.62;100993.59;5028601;28;45265;-82
2021/08/03 06:34:48;;;;;;;;;3.00;3.00;;;;;18.92;66.46;100999.50;5040899;28;45264;-83
2021/08/03 06:37:14;;;;;;;;;3.00;3.00;;;;;18.95;66.77;101001.16;5008839;28;45513;-83
2021/08/03 06:39:40;;;;;;;;;4.00;4.00;;;;;18.93;66.48;100995.91;5022683;28;46268;-86
2021/08/03 06:42:20;;;;;;;;;4.00;4.00;;;;;18.93;66.31;100998.56;5040896;28;45403;-88
2021/08/03 06:44:58;;;;;;;;;4.00;4.00;;;;;18.98;66.02;101008.19;5040618;28;45670;-87
2021/08/03 06:47:27;;;;;;;;;5.67;5.67;;;;;19.08;65.44;101009.63;5019008;28;45310;-84
2021/08/03 06:49:54;;;;;;;;;5.33;5.00;;;;;19.15;65.62;101014.69;5018201;28;47379;-85
2021/08/03 06:52:21;;;;;;;;;9.00;8.00;;;;;19.10;65.57;100995.28;5021982;28;45567;-81
2021/08/03 06:55:01;;;;;;;;;7.50;6.00;;;;;19.12;65.73;101005.94;5022469;28;45286;-87
2021/08/03 06:57:29;;;;;;;;;6.00;5.00;;;;;19.16;65.76;101015.56;5040369;28;45463;-86
2021/08/03 07:00:14;;;;;;;;;7.67;7.00;;;;;19.18;65.37;101016.38;5022047;28;48117;-88
2021/08/03 07:02:55;;;;;;;;;11.50;9.00;;;;;19.21;65.97;101013.59;5026969;28;45242;-87
2021/08/03 07:05:26;;;;;;;;;7.00;5.00;;;;;19.25;66.11;101025.06;5024699;28;45423;-89
2021/08/03 07:10:53;;;;;;;;;9.00;7.67;;;;;19.35;65.76;101016.69;5039517;28;46042;-81
2021/08/03 07:13:19;;;;;;;;;6.67;5.67;;;;;19.51;65.82;101029.44;5021838;28;45728;-84
2021/08/03 07:15:46;;;;;;;;;7.00;7.00;;;;;19.55;65.68;101020.41;5021830;28;45387;-84
2021/08/03 07:18:12;;;;;;;;;6.67;5.67;;;;;19.63;64.96;101014.78;5023655;28;45411;-82
2021/08/03 07:20:41;;;;;;;;;6.00;6.00;;;;;19.69;64.71;101020.81;5039371;28;45413;-80
2021/08/03 07:23:09;;;;;;;;;7.33;6.33;;;;;19.63;64.33;101018.34;5036783;28;45461;-81
2021/08/03 07:25:35;;;;;;;;;5.75;5.75;;;;;19.66;64.61;101017.34;5036527;28;45313;-80
2021/08/03 07:28:01;;;;;;;;;6.25;6.25;;;;;19.74;64.85;101032.19;5035157;28;45398;-82
2021/08/03 07:30:26;;;;;;;;;6.50;6.50;;;;;19.77;64.65;101020.53;5005968;28;46130;-83
2021/08/03 07:32:52;;;;;;;;;6.00;6.00;;;;;19.79;64.67;101014.19;5040608;28;45294;-83
2021/08/03 07:35:17;;;;;;;;;7.50;7.50;;;;;19.88;64.22;101029.00;5020207;28;45355;-82
2021/08/03 07:37:43;;;;;;;;;6.75;6.75;;;;;19.97;64.39;101028.66;5009833;28;45492;-83
2021/08/03 07:40:09;;;;;;;;;6.00;6.00;;;;;20.09;63.39;101024.63;5021355;28;47271;-82
2021/08/03 07:42:35;;;;;;;;;9.67;6.67;;;;;20.07;62.98;101014.94;5021636;28;45518;-80
2021/08/03 07:45:00;;;;;;;;;6.00;5.67;;;;;20.21;63.42;101024.16;5039369;28;45446;-83
2021/08/03 07:47:26;;;;;;;;;7.25;7.25;;;;;20.32;62.88;101013.03;5021455;28;45513;-83
2021/08/03 07:49:52;;;;;;;;;7.00;5.00;;;;;20.46;62.69;101016.03;5039146;28;45489;-81
2021/08/03 07:52:19;;;;;;;;;5.50;5.50;;;;;20.54;61.81;101025.59;5038949;28;45537;-84
2021/08/03 07:54:44;;;;;;;;;5.00;5.00;;;;;20.60;61.15;101022.66;5021133;28;45461;-82
2021/08/03 07:57:09;;;;;;;;;3.67;3.67;;;;;20.68;61.22;101021.41;5039486;28;45392;-83
2021/08/03 07:59:35;;;;;;;;;5.00;5.00;;;;;20.72;60.69;101018.63;5038991;28;45424;-80
2021/08/03 08:02:00;;;;;;;;;4.67;4.67;;;;;20.85;60.40;101027.84;5039442;28;45287;-82
2021/08/03 08:04:26;;;;;;;;;5.00;4.67;;;;;20.86;60.09;101025.13;5039101;28;45335;-81
2021/08/03 08:06:54;;;;;;;;;3.67;3.67;;;;;20.87;59.38;101029.53;5019157;28;45537;-83
2021/08/03 08:09:20;;;;;;;;;3.00;3.00;;;;;20.84;59.18;101018.94;5033144;28;45512;-81
2021/08/03 08:15:35;;;;;;;;;2.67;2.67;;;;;20.89;58.39;101013.41;5022237;28;45470;-85
2021/08/03 08:18:55;;;;;;;;;4.00;4.00;;;;;20.89;58.22;101000.03;5030175;28;45530;-86
2021/08/03 08:21:33;;;;;;;;;;;;;;;;;;;;;
2021/08/03 08:24:07;;;;;;;;;5.33;5.33;;;;;21.16;58.14;101003.31;5027851;28;73159;-80
2021/08/03 08:26:34;;;;;;;;;3.00;3.00;;;;;21.18;58.09;101011.31;5022317;28;45617;-80
2021/08/03 08:29:03;;;;;;;;;6.33;3.33;;;;;21.27;58.00;101005.53;5024872;28;46318;-80
2021/08/03 08:31:38;;;;;;;;;7.00;5.00;;;;;21.48;57.83;101004.59;5027655;28;47900;-82
2021/08/03 08:34:09;;;;;;;;;5.33;4.00;;;;;21.58;57.49;101013.09;5028593;28;45535;-80
2021/08/03 08:36:38;;;;;;;;;6.00;6.00;;;;;21.59;57.48;101004.13;5041300;28;45359;-80
2021/08/03 08:39:06;;;;;;;;;5.67;5.00;;;;;21.64;56.77;101015.50;5024063;28;46050;-80
2021/08/03 08:41:39;;;;;;;;;4.00;3.33;;;;;21.69;56.41;101013.47;5042203;28;46157;-80
2021/08/03 08:44:08;;;;;;;;;3.00;3.00;;;;;21.85;55.49;101010.97;5032452;28;45410;-80
2021/08/03 08:46:40;;;;;;;;;3.00;3.00;;;;;22.04;56.19;101000.25;5041806;28;45475;-80
2021/08/03 08:49:16;;;;;;;;;5.00;5.00;;;;;22.19;55.72;101002.25;5023924;28;45442;-80
2021/08/03 08:51:44;;;;;;;;;5.00;4.33;;;;;22.36;55.28;101005.91;5041111;28;45468;-80
2021/08/03 08:54:24;;;;;;;;;4.67;3.67;;;;;22.52;54.51;101006.03;5040021;28;45336;-80
2021/08/03 08:57:02;;;;;;;;;;;;;;;;;;;;;
2021/08/03 08:59:38;;;;;;;;;;;;;;;;;;;;;
2021/08/03 09:02:16;;;;;;;;;;;;;;;;;;;;;
2021/08/03 09:04:56;;;;;;;;;3.00;3.00;;;;;23.34;52.35;101014.41;5040984;28;73202;-80
2021/08/03 09:07:24;;;;;;;;;4.00;2.33;;;;;23.47;51.93;100998.47;5016846;28;45429;-81
2021/08/03 09:10:05;;;;;;;;;;;;;;;;;;;;;
2021/08/03 09:12:36;;;;;;;;;2.67;2.33;;;;;23.76;50.49;101000.53;5040357;28;75118;-81
2021/08/03 09:15:32;;;;;;;;;3.00;3.00;;;;;23.78;50.83;101013.84;5041395;28;45499;-81
2021/08/03 09:18:18;;;;;;;;;4.67;4.33;;;;;23.53;50.64;101006.22;5036276;28;45237;-80
2021/08/03 09:20:57;;;;;;;;;;;;;;;;;;;;;
2021/08/03 09:24:15;;;;;;;;;;;;;;;;;;;;;
2021/08/03 09:27:36;;;;;;;;;4.00;4.00;;;;;22.54;52.29;101022.94;4976459;28;72999;-81
2021/08/03 09:30:06;;;;;;;;;;;;;;;;;;;;;
2021/08/03 09:32:58;;;;;;;;;5.00;5.00;;;;;22.37;53.31;101024.63;5039974;28;71857;-81
2021/08/03 09:35:28;;;;;;;;;4.00;4.00;;;;;22.31;52.88;101018.69;5020014;28;47863;-81
2021/08/03 09:38:13;;;;;;;;;;;;;;;;;;;;;
2021/08/03 09:40:56;;;;;;;;;;;;;;;;;;;;;
2021/08/03 09:43:43;;;;;;;;;;;;;;;;;;;;;
2021/08/03 09:46:24;;;;;;;;;4.33;4.33;;;;;22.43;52.83;101021.66;5042605;28;75161;-81
2021/08/03 09:48:52;;;;;;;;;2.33;2.33;;;;;22.58;52.40;101021.81;5022417;28;45215;-81
2021/08/03 09:51:27;;;;;;;;;3.33;3.00;;;;;22.64;52.33;101019.72;5028947;28;45444;-81
2021/08/03 09:54:05;;;;;;;;;;;;;;;;;;;;;
2021/08/03 09:56:40;;;;;;;;;4.00;4.00;;;;;22.76;51.67;101018.22;5039773;28;75244;-80
2021/08/03 09:59:26;;;;;;;;;4.33;4.33;;;;;22.76;51.72;101002.13;5040248;28;45476;-81
2021/08/03 10:01:58;;;;;;;;;5.67;5.00;;;;;22.87;51.26;101013.19;5022716;28;45395;-81
2021/08/03 10:04:41;;;;;;;;;;;;;;;;;;;;;
2021/08/03 10:07:07;;;;;;;;;5.00;4.00;;;;;23.04;50.69;100996.25;5035419;28;75145;-81
2021/08/03 10:09:46;;;;;;;;;3.00;3.00;;;;;23.12;50.58;101003.88;5033493;28;45266;-81
2021/08/03 10:12:15;;;;;;;;;2.67;2.67;;;;;23.14;50.16;101002.00;5014857;28;45353;-81
2021/08/03 10:14:44;;;;;;;;;5.67;3.00;;;;;23.21;50.65;101010.63;5027475;28;45538;-81
2021/08/03 10:17:15;;;;;;;;;4.00;4.00;;;;;23.23;50.97;101012.28;5040472;28;46182;-81
2021/08/03 10:19:45;;;;;;;;;2.00;2.00;;;;;23.25;50.74;101001.44;5035844;28;45265;-81
2021/08/03 10:22:28;;;;;;;;;4.00;3.33;;;;;23.30;50.75;101005.63;5016650;28;45417;-81
2021/08/03 10:25:19;;;;;;;;;;;;;;;;;;;;;
2021/08/03 10:27:56;;;;;;;;;3.33;3.33;;;;;23.43;49.79;101013.91;5028052;28;75495;-81
2021/08/03 10:30:37;;;;;;;;;;;;;;;;;;;;;
2021/08/03 10:33:10;;;;;;;;;4.67;4.33;;;;;23.35;49.51;101005.38;5039196;28;67658;-81
2021/08/03 10:35:49;;;;;;;;;3.67;3.67;;;;;23.31;50.04;101014.56;5035710;28;45550;-81
2021/08/03 10:38:28;;;;;;;;;4.33;4.33;;;;;23.17;50.14;101009.03;5031865;28;45621;-81
2021/08/03 10:40:56;;;;;;;;;2.67;2.67;;;;;23.05;50.01;101002.50;5040254;28;45346;-81
2021/08/03 10:43:41;;;;;;;;;4.33;4.00;;;;;22.88;49.77;100990.78;5040052;28;45530;-81
2021/08/03 10:46:06;;;;;;;;;2.00;2.00;;;;;22.84;49.95;101016.03;5022022;28;45733;-81
2021/08/03 10:48:54;;;;;;;;;2.67;2.67;;;;;22.81;49.24;101005.44;5022050;28;46207;-81
2021/08/03 10:51:20;;;;;;;;;5.00;4.00;;;;;22.84;49.68;101009.78;5021682;28;46030;-83
2021/08/03 10:54:12;;;;;;;;;;;;;;;;;;;;;
2021/08/03 10:56:58;;;;;;;;;2.00;2.00;;;;;23.04;49.14;101017.75;5038796;28;72792;-81
2021/08/03 10:59:48;;;;;;;;;3.00;3.00;;;;;23.19;48.82;101001.78;5039306;28;46315;-81
2021/08/03 11:02:25;;;;;;;;;3.00;3.00;;;;;23.51;48.58;101008.13;5018216;28;45524;-81
2021/08/03 11:05:08;;;;;;;;;;;;;;;;;;;;;
2021/08/03 11:07:46;;;;;;;;;;;;;;;;;;;;;
2021/08/03 11:10:25;;;;;;;;;;;;;;;;;;;;;
2021/08/03 11:13:03;;;;;;;;;;;;;;;;;;;;;
2021/08/03 11:15:39;;;;;;;;;3.00;3.00;;;;;24.07;46.57;101009.56;5038644;28;68869;-81
2021/08/03 11:18:18;;;;;;;;;;;;;;;;;;;;;
2021/08/03 11:20:55;;;;;;;;;;;;;;;;;;;;;
2021/08/03 11:23:43;;;;;;;;;4.00;4.00;;;;;23.61;47.75;101006.69;5038091;28;71533;-81
2021/08/03 11:26:18;;;;;;;;;4.33;3.33;;;;;23.38;48.10;101005.22;5009619;28;45440;-80
2021/08/03 11:29:06;;;;;;;;;4.00;4.00;;;;;23.23;47.51;101019.44;5019706;28;45957;-80
2021/08/03 11:31:51;;;;;;;;;6.00;6.00;;;;;23.09;48.95;101031.81;5018248;28;48089;-80
2021/08/03 11:34:23;;;;;;;;;3.00;3.00;;;;;22.85;49.38;101024.94;5027766;28;45305;-82
2021/08/03 11:37:06;;;;;;;;;5.00;5.00;;;;;22.72;50.69;101021.13;5024206;28;45350;-82
2021/08/03 11:39:40;;;;;;;;;6.33;5.67;;;;;22.64;51.71;101013.47;5039135;28;45274;-80
2021/08/03 11:42:10;;;;;;;;;6.67;6.00;;;;;22.55;51.89;101006.75;5038992;28;46192;-80
2021/08/03 11:44:49;;;;;;;;;;;;;;;;;;;;;
2021/08/03 11:47:17;;;;;;;;;8.00;6.00;;;;;22.38;52.19;101010.25;5018679;28;68617;-81
2021/08/03 11:50:03;;;;;;;;;8.00;7.00;;;;;22.27;52.43;101009.06;5039107;28;45300;-80
2021/08/03 11:52:34;;;;;;;;;7.33;7.00;;;;;22.06;52.81;100998.38;5020727;28;45295;-81
2021/08/03 11:55:11;;;;;;;;;6.33;6.00;;;;;21.92;52.43;100993.66;5039327;28;45356;-81
2021/08/03 11:57:41;;;;;;;;;5.00;5.00;;;;;21.79;52.81;101005.91;5039532;28;45245;-81
2021/08/03 12:00:23;;;;;;;;;4.00;4.00;;;;;21.73;53.15;101000.81;5025953;28;45449;-81
2021/08/03 12:02:57;;;;;;;;;4.00;4.00;;;;;21.76;52.35;101009.59;5021107;28;47745;-81
2021/08/03 12:05:27;;;;;;;;;5.33;5.33;;;;;21.82;52.94;101002.22;5039957;28;45420;-81
2021/08/03 12:08:23;;;;;;;;;7.00;7.00;;;;;21.95;53.25;100995.34;5017407;28;45416;-82
2021/08/03 12:11:08;;;;;;;;;;;;;;;;;;;;;
2021/08/03 12:13:50;;;;;;;;;6.00;6.00;;;;;22.35;52.65;100996.16;5038151;28;75542;-82
2021/08/03 12:16:42;;;;;;;;;;;;;;;;;;;;;
2021/08/03 12:19:36;;;;;;;;;5.00;5.00;;;;;22.61;51.67;100985.00;5037936;28;69164;-82
2021/08/03 12:22:38;;;;;;;;;5.33;5.33;;;;;22.86;51.27;100986.44;5038656;28;46236;-81
2021/08/03 12:25:04;;;;;;;;;5.67;5.33;;;;;23.02;50.91;100979.34;5014406;28;47283;-82
2021/08/03 12:27:48;;;;;;;;;6.00;6.00;;;;;23.23;50.24;100974.69;5020759;28;46067;-82
2021/08/03 12:30:33;;;;;;;;;4.67;3.33;;;;;23.52;50.32;100978.50;5038902;28;45357;-82
2021/08/03 12:33:01;;;;;;;;;6.00;4.00;;;;;23.72;49.80;100961.28;5030014;28;45434;-83
2021/08/03 12:35:39;;;;;;;;;6.00;6.00;;;;;23.97;49.02;100959.91;5035641;28;45272;-80
2021/08/03 12:38:20;;;;;;;;;3.67;3.67;;;;;24.20;48.75;100959.50;5029991;28;45497;-80
2021/08/03 12:40:58;;;;;;;;;5.33;5.33;;;;;24.37;47.97;100963.03;5020588;28;45213;-81
2021/08/03 12:44:02;;;;;;;;;5.00;5.00;;;;;24.44;47.07;100956.38;5020303;28;45563;-80
2021/08/03 12:46:52;;;;;;;;;;;;;;;;;;;;;
2021/08/03 12:49:33;;;;;;;;;6.00;5.00;;;;;24.46;46.61;100949.09;5037531;28;73148;-80
2021/08/03 12:52:29;;;;;;;;;;;;;;;;;;;;;
2021/08/03 12:55:10;;;;;;;;;4.67;4.67;;;;;24.29;46.47;100954.53;5037239;28;72636;-80
2021/08/03 12:57:51;;;;;;;;;6.33;6.00;;;;;24.29;45.78;100959.91;5020412;28;47237;-80
2021/08/03 13:00:30;;;;;;;;;4.33;4.33;;;;;24.16;45.55;100960.63;5008577;28;45811;-80
2021/08/03 13:03:13;;;;;;;;;3.00;1.67;;;;;24.10;44.52;100954.72;5023587;28;45497;-79
2021/08/03 13:05:44;;;;;;;;;3.00;3.00;;;;;24.04;45.46;100969.38;5031623;28;45455;-80
2021/08/03 13:08:46;;;;;;;;;;;;;;;;;;;;;
2021/08/03 13:11:20;;;;;;;;;;;;;;;;;;;;;
2021/08/03 13:14:06;;;;;;;;;4.00;4.00;;;;;23.96;43.35;100961.75;5040567;28;67892;-80
2021/08/03 13:16:54;;;;;;;;;;;;;;;;;;;;;
2021/08/03 13:19:39;;;;;;;;;4.00;4.00;;;;;24.04;42.56;100955.06;5040381;28;75630;-80
2021/08/03 13:22:38;;;;;;;;;;;;;;;;;;;;;
2021/08/03 13:25:08;;;;;;;;;;;;;;;;;;;;;
2021/08/03 13:27:58;;;;;;;;;4.33;4.33;;;;;24.30;43.31;100951.75;5040440;28;72791;-80
2021/08/03 13:30:27;;;;;;;;;5.00;5.00;;;;;24.40;42.96;100952.06;5040449;28;45544;-80
2021/08/03 13:33:08;;;;;;;;;4.00;4.00;;;;;24.45;43.05;100950.03;5027081;28;45332;-82
2021/08/03 13:36:18;;;;;;;;;;;;;;;;;;;;;
2021/08/03 13:39:18;;;;;;;;;;;;;;;;;;;;;
2021/08/03 13:42:17;;;;;;;;;5.00;3.67;;;;;24.78;42.05;100944.47;5040063;28;76051;-80
2021/08/03 13:44:47;;;;;;;;;4.33;4.33;;;;;24.65;42.71;100947.03;5041111;28;45479;-82
2021/08/03 13:47:21;;;;;;;;;2.67;2.67;;;;;24.55;42.74;100956.59;5041243;28;45347;-82
2021/08/03 13:49:58;;;;;;;;;4.00;4.00;;;;;24.43;42.38;100947.41;5037278;28;45459;-79
2021/08/03 13:53:05;;;;;;;;;4.67;4.67;;;;;24.35;43.13;100962.25;5035302;28;48138;-82
2021/08/03 13:55:27;;;;;;;;;7.33;5.67;;;;;24.25;42.33;100953.00;5026576;28;45466;-82
2021/08/03 13:58:03;;;;;;;;;4.00;4.00;;;;;24.15;42.54;100958.03;5023026;28;45367;-80
2021/08/03 14:00:28;;;;;;;;;4.00;3.67;;;;;24.09;42.27;100969.13;5023257;28;45522;-81
2021/08/03 14:03:11;;;;;;;;;4.33;4.00;;;;;24.03;40.88;100972.16;5027291;28;47080;-82
2021/08/03 14:05:46;;;;;;;;;3.00;3.00;;;;;23.92;40.44;100978.13;5031754;28;45373;-79
2021/08/03 14:08:24;;;;;;;;;;;;;;;;;;;;;
2021/08/03 14:11:06;;;;;;;;;3.00;3.00;;;;;23.90;40.54;100967.47;5039457;28;71232;-80
2021/08/03 14:14:08;;;;;;;;;;;;;;;;;;;;;
2021/08/03 14:16:48;;;;;;;;;2.33;2.33;;;;;23.89;39.14;100968.41;5027549;28;72754;-82
2021/08/03 14:19:18;;;;;;;;;3.00;3.00;;;;;23.92;39.75;100979.03;5022368;28;45346;-82
2021/08/03 14:22:09;;;;;;;;;3.33;3.33;;;;;23.93;38.46;100967.31;5019028;28;45665;-80
2021/08/03 14:24:51;;;;;;;;;2.33;2.33;;;;;24.06;38.44;100969.28;5034617;28;46597;-80
2021/08/03 14:27:29;;;;;;;;;;;;;;;;;;;;;
2021/08/03 14:30:05;;;;;;;;;3.00;2.33;;;;;24.27;38.51;100964.50;5039464;28;67517;-80
2021/08/03 14:32:33;;;;;;;;;2.33;2.33;;;;;24.36;38.86;100961.31;5010437;28;45597;-80
2021/08/03 14:35:11;;;;;;;;;5.67;4.00;;;;;24.50;38.72;100963.22;5039993;28;45275;-80
2021/08/03 14:37:47;;;;;;;;;4.00;3.00;;;;;24.68;38.17;100951.38;5009467;28;45524;-80
2021/08/03 14:40:32;;;;;;;;;;;;;;;;;;;;;
2021/08/03 14:42:58;;;;;;;;;3.33;3.33;;;;;25.18;38.12;100965.44;5038962;28;71341;-80
2021/08/03 14:45:26;;;;;;;;;3.00;3.00;;;;;25.42;37.33;100960.38;5022127;28;46298;-80
2021/08/03 14:48:03;;;;;;;;;3.00;3.00;;;;;25.62;36.84;100960.00;5040191;28;45306;-80
2021/08/03 14:50:31;;;;;;;;;3.00;3.00;;;;;25.75;36.11;100944.75;5009433;28;45515;-80
2021/08/03 14:53:09;;;;;;;;;;;;;;;;;;;;;
2021/08/03 14:55:35;;;;;;;;;2.67;2.67;;;;;25.90;33.87;100951.06;5039133;28;73767;-80
2021/08/03 14:58:13;;;;;;;;;;;;;;;;;;;;;
2021/08/03 15:00:39;;;;;;;;;2.00;2.00;;;;;25.88;34.36;100961.06;5039045;28;69400;-79
2021/08/03 15:03:05;;;;;;;;;3.00;3.00;;;;;25.88;34.00;100960.22;5021973;28;45519;-79
2021/08/03 15:05:30;;;;;;;;;2.00;2.00;;;;;25.78;34.52;100946.41;5021906;28;46017;-79
2021/08/03 15:07:56;;;;;;;;;4.67;3.33;;;;;25.70;34.38;100949.59;5039738;28;45307;-79
2021/08/03 15:10:21;;;;;;;;;4.00;3.00;;;;;25.60;34.71;100953.81;5021888;28;45388;-80
2021/08/03 15:12:47;;;;;;;;;3.33;3.00;;;;;25.41;34.91;100947.88;5021681;28;45410;-79
2021/08/03 15:15:12;;;;;;;;;2.00;2.00;;;;;25.27;34.86;100946.03;5039580;28;46241;-80
2021/08/03 15:17:38;;;;;;;;;6.00;6.00;;;;;25.18;35.42;100942.09;5039319;28;45515;-79
2021/08/03 15:20:04;;;;;;;;;3.33;3.33;;;;;25.25;35.47;100948.81;5040006;28;45443;-81
2021/08/03 15:22:29;;;;;;;;;4.00;4.00;;;;;25.25;35.50;100939.88;5023446;28;45247;-79
2021/08/03 15:24:55;;;;;;;;;4.67;3.00;;;;;25.35;35.53;100959.03;5014450;28;47617;-79
2021/08/03 15:27:21;;;;;;;;;3.00;3.00;;;;;25.30;35.21;100952.09;5038265;28;45605;-81
2021/08/03 15:29:46;;;;;;;;;3.67;3.00;;;;;25.33;35.69;100958.25;5021866;28;45179;-81
2021/08/03 15:32:12;;;;;;;;;4.67;3.00;;;;;25.33;34.94;100948.34;5027823;28;45317;-79
2021/08/03 15:34:38;;;;;;;;;3.00;3.00;;;;;25.53;35.69;100955.19;5029930;28;46384;-79
2021/08/03 15:37:07;;;;;;;;;3.00;3.00;;;;;25.72;35.89;100944.09;5007624;28;45431;-81
2021/08/03 15:39:32;;;;;;;;;3.67;3.67;;;;;25.81;34.95;100940.81;5039485;28;45424;-79
2021/08/03 15:41:57;;;;;;;;;4.00;3.00;;;;;25.84;35.05;100939.78;5039186;28;45488;-80
2021/08/03 15:44:23;;;;;;;;;4.00;4.00;;;;;25.75;34.95;100944.75;5039093;28;45539;-82
2021/08/03 15:46:49;;;;;;;;;2.00;2.00;;;;;25.64;35.25;100944.59;5021189;28;45416;-79
2021/08/03 15:49:15;;;;;;;;;3.00;3.00;;;;;25.56;35.47;100946.06;5021453;28;45267;-80
2021/08/03 15:51:42;;;;;;;;;5.33;4.33;;;;;25.80;35.27;100952.56;5038511;28;45473;-80
2021/08/03 15:54:08;;;;;;;;;4.00;3.67;;;;;25.60;35.01;100948.44;5020871;28;46970;-80
2021/08/03 15:56:34;;;;;;;;;5.00;4.00;;;;;25.34;35.18;100951.91;5020786;28;45335;-80
2021/08/03 15:59:00;;;;;;;;;4.33;4.33;;;;;25.19;35.77;100951.91;5039271;28;45461;-80
2021/08/03 16:01:26;;;;;;;;;3.67;3.67;;;;;24.98;36.55;100961.25;5038694;28;45355;-80
2021/08/03 16:03:51;;;;;;;;;3.67;3.67;;;;;24.63;37.43;100942.69;5020711;28;47081;-80
2021/08/03 16:06:17;;;;;;;;;4.00;4.00;;;;;24.39;37.97;100945.84;5038770;28;45323;-80
2021/08/03 16:08:50;;;;;;;;;4.67;4.67;;;;;24.20;38.02;100951.41;5039185;28;45426;-80
2021/08/03 16:11:15;;;;;;;;;6.00;5.00;;;;;24.05;38.40;100959.50;5020858;28;45714;-80
2021/08/03 16:13:41;;;;;;;;;5.00;5.00;;;;;23.92;39.24;100962.88;5029423;28;46221;-80
2021/08/03 16:16:06;;;;;;;;;4.33;4.33;;;;;23.75;39.19;100955.75;5038359;28;45402;-80
2021/08/03 16:18:49;;;;;;;;;4.00;4.00;;;;;23.77;39.37;100961.06;5018040;28;45435;-80
2021/08/03 16:21:17;;;;;;;;;4.00;4.00;;;;;23.71;39.63;100948.81;5025994;28;45371;-80
2021/08/03 16:23:43;;;;;;;;;4.00;4.00;;;;;23.68;39.86;100954.34;5037134;28;48357;-80
2021/08/03 16:26:12;;;;;;;;;7.00;5.00;;;;;23.59;39.62;100959.34;5020530;28;45420;-80
2021/08/03 16:28:37;;;;;;;;;4.00;4.00;;;;;23.51;39.58;100963.31;5019079;28;45274;-80
2021/08/03 16:31:04;;;;;;;;;3.67;3.33;;;;;23.40;40.29;100956.78;5014085;28;45316;-80
2021/08/03 16:33:38;;;;;;;;;7.33;5.00;;;;;23.34;40.04;100956.16;5033353;28;46253;-80
2021/08/03 16:36:05;;;;;;;;;3.67;3.67;;;;;23.24;40.40;100951.34;5030622;28;45236;-80
2021/08/03 16:38:32;;;;;;;;;5.67;5.00;;;;;23.17;40.57;100953.50;5037533;28;45447;-80
2021/08/03 16:41:00;;;;;;;;;4.00;4.00;;;;;23.09;40.08;100953.03;5024391;28;45559;-80
2021/08/03 16:43:27;;;;;;;;;5.00;5.00;;;;;23.02;40.29;100957.88;5041613;28;46569;-80
2021/08/03 16:45:54;;;;;;;;;6.00;6.00;;;;;22.98;40.50;100952.72;5042102;28;45297;-80
2021/08/03 16:48:19;;;;;;;;;4.00;4.00;;;;;22.93;40.58;100952.06;5027494;28;45519;-79
2021/08/03 16:50:46;;;;;;;;;3.00;3.00;;;;;22.92;40.66;100947.66;5014028;28;45320;-79
2021/08/03 16:53:12;;;;;;;;;4.33;4.33;;;;;22.95;40.57;100952.84;5037827;28;45351;-80
2021/08/03 16:55:37;;;;;;;;;4.00;4.00;;;;;22.88;40.67;100952.28;5023639;28;45387;-79
2021/08/03 16:58:09;;;;;;;;;3.33;3.33;;;;;22.96;40.51;100960.88;5023496;28;45439;-79
2021/08/03 17:00:35;;;;;;;;;5.67;4.00;;;;;22.86;40.79;100951.53;5041585;28;45380;-80
2021/08/03 17:03:20;;;;;;;;;4.33;4.33;;;;;22.87;40.76;100955.94;5041503;28;46257;-80
2021/08/03 17:06:01;;;;;;;;;4.00;4.00;;;;;22.90;40.98;100953.09;5041408;28;45479;-79
2021/08/03 17:08:38;;;;;;;;;4.00;4.00;;;;;22.89;40.84;100941.47;5041499;28;45252;-79
2021/08/03 17:11:22;;;;;;;;;6.00;5.00;;;;;22.99;40.66;100958.03;5041109;28;45546;-80
2021/08/03 17:13:54;;;;;;;;;5.00;4.00;;;;;23.03;40.83;100956.03;5041411;28;45300;-79
2021/08/03 17:16:29;;;;;;;;;7.00;4.67;;;;;23.07;40.50;100947.75;5028741;28;45233;-79
2021/08/03 17:18:55;;;;;;;;;5.00;4.00;;;;;23.20;40.74;100949.78;5041105;28;45242;-79
2021/08/03 17:21:29;;;;;;;;;5.00;5.00;;;;;23.35;40.68;100946.28;5023174;28;45502;-80
2021/08/03 17:24:08;;;;;;;;;4.00;4.00;;;;;23.54;40.63;100944.31;5035848;28;45364;-80
2021/08/03 17:26:37;;;;;;;;;5.00;5.00;;;;;23.80;39.73;100946.56;5023723;28;45226;-80
2021/08/03 17:29:05;;;;;;;;;3.00;3.00;;;;;24.46;39.79;100943.69;5041138;28;45433;-80
2021/08/03 17:31:32;;;;;;;;;5.00;4.00;;;;;25.91;38.78;100939.28;5040962;28;45553;-80
2021/08/03 17:34:06;;;;;;;;;6.00;4.00;;;;;27.65;36.40;100932.84;5034929;28;46443;-81
2021/08/03 17:36:56;;;;;;;;;2.67;2.67;;;;;29.33;34.70;100946.34;5012308;28;45424;-82
2021/08/03 17:40:18;;;;;;;;;3.67;3.67;;;;;30.90;31.88;100937.06;5023921;28;45539;-81
2021/08/03 17:42:42;;;;;;;;;4.00;4.00;;;;;32.03;29.45;100939.75;5005277;28;45502;-82
2021/08/03 17:45:11;;;;;;;;;4.67;3.33;;;;;32.70;28.41;100929.06;5038080;28;46535;-80
2021/08/03 17:47:40;;;;;;;;;4.00;4.00;;;;;33.20;27.68;100936.16;5020595;28;45584;-81
2021/08/03 17:50:28;;;;;;;;;4.00;3.67;;;;;33.62;27.50;100928.41;5033594;28;45410;-81
2021/08/03 17:53:16;;;;;;;;;4.00;3.67;;;;;33.53;25.51;100924.72;5002326;28;45476;-84
2021/08/03 17:56:06;;;;;;;;;3.00;3.00;;;;;32.82;25.12;100937.94;5007844;28;45675;-84
2021/08/03 17:58:37;;;;;;;;;5.67;4.33;;;;;32.34;26.86;100936.91;4993069;28;45477;-82
2021/08/03 19:04:58;;;;;;;;;4.00;4.00;;;;;22.27;38.18;100974.19;5591778;22;45907;-82
2021/08/03 19:07:46;;;;;;;;;4.00;2.67;;;;;22.10;38.80;100978.50;4974237;28;46201;-80
2021/08/03 19:10:17;;;;;;;;;19.50;19.50;;;;;21.91;39.31;100983.88;4956167;28;45935;-77
2021/08/03 19:13:17;;;;;;;;;73.25;62.00;;;;;21.77;39.41;100979.16;4985888;28;45362;-81
2021/08/03 19:15:51;;;;;;;;;4.75;4.75;;;;;21.55;40.14;100973.06;4979301;28;45449;-84
2021/08/03 19:18:28;;;;;;;;;6.00;6.00;;;;;21.42;40.72;100974.56;4979584;28;45617;-84
2021/08/03 19:21:50;;;;;;;;;4.33;4.00;;;;;21.34;40.79;100986.44;4979455;28;45457;-87
2021/08/03 19:24:18;;;;;;;;;4.00;3.67;;;;;21.17;41.18;100990.78;4954269;28;45583;-84
2021/08/03 19:26:44;;;;;;;;;6.00;6.00;;;;;21.01;41.56;100975.44;4982407;28;45860;-81
2021/08/03 19:29:28;;;;;;;;;5.25;5.00;;;;;20.95;42.04;100994.41;4970224;28;45551;-85
2021/08/03 19:31:56;;;;;;;;;4.75;4.00;;;;;20.84;42.25;100983.28;4975916;28;45826;-84
2021/08/03 19:34:21;;;;;;;;;5.50;5.50;;;;;20.84;43.08;100988.66;4958432;28;45787;-85
2021/08/03 19:40:32;;;;;;;;;6.25;5.50;;;;;20.70;43.57;100997.25;4898383;28;45524;-83
2021/08/03 19:42:58;;;;;;;;;6.00;5.00;;;;;20.59;43.66;100992.34;4930663;28;45516;-84
2021/08/03 19:45:25;;;;;;;;;5.00;5.00;;;;;20.59;43.97;100994.16;4960279;28;45614;-84